Time;durP1;ratioP1;P1;durP2;ratioP2;P2;SDS_P1;SDS_P2;PMS_P1;PMS_P2;Temp;Humidity;BMP_temperature;BMP_pressure;BME280_temperature;BME280_humidity;BME280_pressure;Samples;Min_cycle;Max_cycle;Signal;HPM_P1;HPM_P2
2023/04/14 00:00:33;;;;;;;37.83;17.75;;;20.60;56.80;;;;;;4877833;29;20040;-79
2023/04/14 00:03:00;;;;;;;42.28;17.23;;;20.60;56.80;;;;;;4877911;29;20025;-79
2023/04/14 00:05:29;;;;;;;37.05;17.05;;;20.60;56.70;;;;;;4891806;29;20116;-79
2023/04/14 00:07:56;;;;;;;35.70;16.55;;;20.70;56.70;;;;;;4876628;29;20037;-79
2023/04/14 00:10:23;;;;;;;37.13;16.35;;;20.70;56.90;;;;;;4876393;29;20041;-80
2023/04/14 00:12:49;;;;;;;38.00;17.05;;;20.60;56.80;;;;;;4877282;29;20041;-80
2023/04/14 00:15:18;;;;;;;32.67;15.50;;;20.70;56.80;;;;;;4876515;29;20057;-80
2023/04/14 00:17:44;;;;;;;36.88;15.02;;;20.60;56.60;;;;;;4876519;29;20029;-80
2023/04/14 00:20:10;;;;;;;35.92;15.70;;;20.60;56.60;;;;;;4877228;29;20025;-80
2023/04/14 00:22:36;;;;;;;37.15;16.08;;;20.60;56.70;;;;;;4877719;29;20029;-81
2023/04/14 00:25:02;;;;;;;38.35;15.10;;;20.70;56.80;;;;;;4877806;29;20029;-81
2023/04/14 00:27:28;;;;;;;30.92;14.60;;;20.60;56.60;;;;;;4892409;29;20033;-80
2023/04/14 00:29:54;;;;;;;30.23;14.82;;;20.60;56.70;;;;;;4860975;29;20091;-81
2023/04/14 00:32:20;;;;;;;31.95;14.27;;;20.60;56.60;;;;;;4876350;29;20493;-79
2023/04/14 00:34:45;;;;;;;28.90;13.30;;;20.60;57.10;;;;;;4876459;29;20047;-80
2023/04/14 00:37:11;;;;;;;32.58;14.07;;;20.60;56.50;;;;;;4860913;29;20614;-80
2023/04/14 00:39:37;;;;;;;30.45;13.60;;;20.60;56.50;;;;;;4860745;29;20037;-80
2023/04/14 00:42:03;;;;;;;30.65;13.27;;;20.60;56.70;;;;;;4891794;29;20055;-80
2023/04/14 00:44:29;;;;;;;31.95;13.65;;;20.60;56.50;;;;;;4877513;29;20025;-80
2023/04/14 00:46:57;;;;;;;27.35;12.38;;;20.60;56.50;;;;;;4877400;29;20035;-79
2023/04/14 00:49:24;;;;;;;30.67;12.95;;;20.60;56.50;;;;;;4845190;29;20128;-80
2023/04/14 00:51:50;;;;;;;30.13;12.50;;;20.60;56.70;;;;;;4877420;29;20037;-80
2023/04/14 00:54:18;;;;;;;28.92;13.55;;;20.60;56.50;;;;;;4876163;29;20044;-79
2023/04/14 00:56:50;;;;;;;27.23;12.15;;;20.60;56.60;;;;;;4860693;29;20037;-79
2023/04/14 00:59:16;;;;;;;26.52;12.13;;;20.60;56.50;;;;;;4875849;29;20073;-80
2023/04/14 01:01:42;;;;;;;25.05;11.77;;;20.60;56.50;;;;;;4891626;29;20490;-80
2023/04/14 01:04:12;;;;;;;25.92;11.13;;;20.60;56.30;;;;;;4876223;29;20482;-79
2023/04/14 01:06:37;;;;;;;22.77;12.15;;;20.60;56.40;;;;;;4845569;29;20033;-79
2023/04/14 01:09:04;;;;;;;26.73;11.40;;;20.60;56.30;;;;;;4860427;29;20431;-80
2023/04/14 01:11:42;;;;;;;26.20;12.27;;;20.60;56.30;;;;;;4891467;29;20037;-79
2023/04/14 01:14:20;;;;;;;22.85;11.00;;;20.60;56.40;;;;;;4845391;29;20402;-80
2023/04/14 01:16:49;;;;;;;28.02;11.80;;;20.60;56.40;;;;;;4891647;29;20390;-79
2023/04/14 01:19:27;;;;;;;25.92;10.93;;;20.60;56.60;;;;;;4860170;29;20056;-79
2023/04/14 01:21:56;;;;;;;20.75;10.70;;;20.60;56.20;;;;;;4856356;29;20106;-80
2023/04/14 01:24:38;;;;;;;22.35;11.18;;;20.60;56.30;;;;;;4874130;29;20073;-80
2023/04/14 01:27:32;;;;;;;21.60;11.00;;;20.60;56.30;;;;;;4861435;29;20052;-79
2023/04/14 01:30:06;;;;;;;23.48;10.70;;;20.60;56.30;;;;;;4877214;29;20395;-80
2023/04/14 01:32:38;;;;;;;24.90;11.32;;;20.60;56.40;;;;;;4862711;29;20582;-79
2023/04/14 01:35:12;;;;;;;23.73;11.57;;;20.60;56.90;;;;;;4894633;29;20092;-80
2023/04/14 01:37:44;;;;;;;20.10;9.88;;;20.60;56.20;;;;;;4880187;29;20033;-79
2023/04/14 01:40:15;;;;;;;20.33;10.10;;;20.60;56.20;;;;;;4878816;29;20482;-79
2023/04/14 01:42:45;;;;;;;20.05;10.07;;;20.60;56.30;;;;;;4879010;29;20379;-82
2023/04/14 01:45:19;;;;;;;22.98;10.35;;;20.60;56.30;;;;;;4863808;29;20085;-82
2023/04/14 01:47:46;;;;;;;22.17;10.38;;;20.60;56.60;;;;;;4848227;29;20047;-82
2023/04/14 01:50:13;;;;;;;21.13;10.00;;;20.60;56.50;;;;;;4863167;29;20040;-82
2023/04/14 01:52:43;;;;;;;20.52;8.68;;;20.60;56.40;;;;;;4878933;29;20045;-79
2023/04/14 01:55:10;;;;;;;22.75;9.35;;;20.60;56.40;;;;;;4863273;29;20041;-78
2023/04/14 01:57:40;;;;;;;19.65;9.48;;;20.60;56.50;;;;;;4894175;29;20037;-80
2023/04/14 02:00:09;;;;;;;18.50;9.10;;;20.60;56.30;;;;;;4894095;29;20076;-78
2023/04/14 02:02:44;;;;;;;21.90;9.23;;;20.60;56.30;;;;;;4864406;29;20045;-79
2023/04/14 02:05:11;;;;;;;19.83;9.13;;;20.60;56.50;;;;;;4878609;29;20504;-80
2023/04/14 02:07:39;;;;;;;18.58;9.05;;;20.60;56.40;;;;;;4863185;29;20032;-78
2023/04/14 02:10:08;;;;;;;20.20;9.68;;;20.60;56.30;;;;;;4893888;29;20029;-79
2023/04/14 02:12:37;;;;;;;19.45;8.82;;;20.60;56.50;;;;;;4879616;29;20060;-79
2023/04/14 02:15:04;;;;;;;19.90;8.40;;;20.60;56.50;;;;;;4893952;29;20116;-79
2023/04/14 02:17:31;;;;;;;15.68;8.98;;;20.60;56.40;;;;;;4862913;29;20304;-80
2023/04/14 02:19:59;;;;;;;17.38;8.52;;;20.60;56.60;;;;;;4893754;29;20029;-80
2023/04/14 02:22:26;;;;;;;17.33;8.32;;;20.60;57.10;;;;;;4878324;29;20401;-80
2023/04/14 02:24:54;;;;;;;18.02;8.48;;;20.60;56.50;;;;;;4847304;29;20092;-82
2023/04/14 02:27:37;;;;;;;16.95;8.43;;;20.60;56.40;;;;;;4863086;29;20096;-80
2023/04/14 02:30:20;;;;;;;19.52;8.35;;;20.60;56.90;;;;;;4879244;29;20076;-80
2023/04/14 02:32:52;;;;;;;19.08;8.25;;;20.60;56.30;;;;;;4893849;29;20061;-80
2023/04/14 02:35:29;;;;;;;17.80;8.40;;;20.60;56.40;;;;;;4862210;29;20080;-79
2023/04/14 02:38:09;;;;;;;16.17;7.68;;;20.60;56.40;;;;;;4862700;29;20033;-80
2023/04/14 02:40:39;;;;;;;14.57;7.50;;;20.60;56.30;;;;;;4862605;29;20029;-80
2023/04/14 02:43:12;;;;;;;;;;;20.60;56.50;;;;;;4878500;29;20100;-80
2023/04/14 02:45:41;;;;;;;15.68;7.40;;;20.60;56.40;;;;;;4862372;29;19911;-79
2023/04/14 02:48:11;;;;;;;14.05;6.93;;;20.60;56.40;;;;;;4877543;29;20281;-80
2023/04/14 02:50:43;;;;;;;16.95;7.57;;;20.60;56.50;;;;;;4877778;29;20045;-80
2023/04/14 02:53:19;;;;;;;14.43;7.32;;;20.60;56.60;;;;;;4893367;29;20032;-79
2023/04/14 02:55:47;;;;;;;14.38;7.30;;;20.50;56.30;;;;;;4893284;29;20037;-81
2023/04/14 02:58:15;;;;;;;15.32;7.65;;;20.60;56.30;;;;;;4892774;29;20429;-80
2023/04/14 03:00:42;;;;;;;15.00;7.40;;;20.60;56.50;;;;;;4862412;29;20179;-80
2023/04/14 03:03:10;;;;;;;14.95;7.25;;;20.60;56.30;;;;;;4893123;29;20052;-80
2023/04/14 03:05:38;;;;;;;17.63;7.53;;;20.60;56.40;;;;;;4862130;29;20169;-80
2023/04/14 03:08:12;;;;;;;15.15;7.07;;;20.60;56.40;;;;;;4877200;29;20040;-80
2023/04/14 03:10:45;;;;;;;14.77;6.78;;;20.60;56.40;;;;;;4877306;29;20387;-80
2023/04/14 03:13:13;;;;;;;13.90;7.18;;;20.60;56.40;;;;;;4847072;29;20052;-80
2023/04/14 03:15:41;;;;;;;16.15;6.78;;;20.50;56.40;;;;;;4877317;29;20486;-80
2023/04/14 03:18:09;;;;;;;14.63;6.97;;;20.50;56.30;;;;;;4892521;29;20107;-80
2023/04/14 03:20:35;;;;;;;13.02;6.07;;;20.60;56.50;;;;;;4877574;29;20351;-80
2023/04/14 03:23:06;;;;;;;12.90;6.70;;;20.50;56.50;;;;;;4861709;29;20371;-80
2023/04/14 03:25:40;;;;;;;12.23;5.95;;;20.60;56.30;;;;;;4877053;29;20041;-81
2023/04/14 03:28:14;;;;;;;12.23;6.10;;;20.60;56.30;;;;;;4876886;29;20037;-81
2023/04/14 03:30:52;;;;;;;12.05;6.15;;;20.50;56.10;;;;;;4846852;29;20041;-81
2023/04/14 03:33:23;;;;;;;12.77;6.13;;;20.50;56.10;;;;;;4877172;29;20220;-80
2023/04/14 03:35:52;;;;;;;13.65;5.95;;;20.50;56.30;;;;;;4861559;29;20033;-81
2023/04/14 03:38:19;;;;;;;11.35;5.53;;;20.60;56.30;;;;;;4877785;29;20068;-80
2023/04/14 03:40:46;;;;;;;12.38;6.15;;;20.50;56.30;;;;;;4861644;29;20030;-80
2023/04/14 03:43:18;;;;;;;13.07;5.95;;;20.50;56.20;;;;;;4892839;29;20047;-81
2023/04/14 03:45:48;;;;;;;13.75;5.72;;;20.50;56.30;;;;;;4877037;29;20064;-81
2023/04/14 03:48:17;;;;;;;12.50;5.63;;;20.60;56.40;;;;;;4845822;29;20033;-81
2023/04/14 03:50:50;;;;;;;12.52;6.25;;;20.50;56.30;;;;;;4876883;29;20033;-79
2023/04/14 03:53:18;;;;;;;11.50;5.30;;;20.50;56.30;;;;;;4861546;29;20044;-79
2023/04/14 03:55:46;;;;;;;13.18;5.95;;;20.50;56.20;;;;;;4892292;29;20037;-79
2023/04/14 03:58:14;;;;;;;10.88;5.38;;;20.50;56.20;;;;;;4860821;29;20085;-79
2023/04/14 04:00:42;;;;;;;15.02;5.93;;;20.50;56.10;;;;;;4892176;29;20033;-79
2023/04/14 04:03:09;;;;;;;12.45;5.53;;;20.50;56.20;;;;;;4846159;29;20072;-79
2023/04/14 04:05:38;;;;;;;11.50;5.18;;;20.50;56.20;;;;;;4861385;29;20033;-79
2023/04/14 04:08:05;;;;;;;10.48;5.40;;;20.50;56.10;;;;;;4891790;29;20037;-79
2023/04/14 04:10:35;;;;;;;11.45;4.85;;;20.50;56.60;;;;;;4876673;29;20079;-79
2023/04/14 04:13:05;;;;;;;10.30;5.35;;;20.50;56.00;;;;;;4877767;29;20037;-79
2023/04/14 04:15:31;;;;;;;;;;;20.60;56.10;;;;;;4877148;29;20037;-79
2023/04/14 04:17:59;;;;;;;9.32;4.57;;;20.50;55.90;;;;;;4876314;29;20440;-78
2023/04/14 04:20:26;;;;;;;12.93;5.15;;;20.50;55.90;;;;;;4876445;29;20112;-78
2023/04/14 04:22:55;;;;;;;7.85;4.50;;;20.60;56.00;;;;;;4892016;29;20033;-80
2023/04/14 04:25:21;;;;;;;9.95;5.07;;;20.50;55.90;;;;;;4891942;29;20060;-80
2023/04/14 04:27:57;;;;;;;11.75;4.75;;;20.60;55.80;;;;;;4846905;29;20128;-79
2023/04/14 04:30:26;;;;;;;11.02;5.10;;;20.50;55.80;;;;;;4891854;29;20044;-79
2023/04/14 04:32:52;;;;;;;8.68;4.78;;;20.60;55.80;;;;;;4872671;29;20044;-79
2023/04/14 04:35:20;;;;;;;9.77;4.70;;;20.60;55.70;;;;;;4889550;29;20029;-80
2023/04/14 04:37:48;;;;;;;10.75;4.57;;;20.60;55.80;;;;;;4870733;29;20422;-79
2023/04/14 04:40:14;;;;;;;11.20;5.15;;;20.60;55.70;;;;;;4870485;29;20288;-79
2023/04/14 04:42:42;;;;;;;8.68;4.57;;;20.60;55.70;;;;;;4856870;29;20406;-79
2023/04/14 04:45:10;;;;;;;9.48;4.50;;;20.60;55.70;;;;;;4872072;29;20030;-80
2023/04/14 04:47:36;;;;;;;8.13;4.25;;;20.60;55.70;;;;;;4873295;29;20034;-79
2023/04/14 04:50:02;;;;;;;9.40;4.43;;;20.60;55.60;;;;;;4872812;29;20058;-79
2023/04/14 04:52:28;;;;;;;9.10;4.45;;;20.50;55.70;;;;;;4873067;29;20034;-79
2023/04/14 04:54:53;;;;;;;10.70;4.50;;;20.60;55.60;;;;;;4857643;29;20136;-79
2023/04/14 04:57:20;;;;;;;8.00;4.38;;;20.50;55.70;;;;;;4858792;29;20113;-79
2023/04/14 04:59:46;;;;;;;10.80;4.60;;;20.60;55.60;;;;;;4862073;29;20025;-79
2023/04/14 05:02:12;;;;;;;9.32;4.72;;;20.60;55.70;;;;;;4862400;29;20048;-80
2023/04/14 05:04:38;;;;;;;8.45;4.20;;;20.60;55.60;;;;;;4876605;29;20029;-80
2023/04/14 05:07:03;;;;;;;12.57;5.25;;;20.60;55.60;;;;;;4862381;29;20427;-80
2023/04/14 05:09:29;;;;;;;10.02;4.65;;;20.60;55.80;;;;;;4861830;29;20082;-80
2023/04/14 05:11:56;;;;;;;10.25;4.35;;;20.60;55.70;;;;;;4876523;29;20394;-79
2023/04/14 05:14:22;;;;;;;11.75;4.60;;;20.60;55.70;;;;;;4862055;29;20034;-80
2023/04/14 05:16:48;;;;;;;7.97;4.50;;;20.60;55.80;;;;;;4845705;29;20040;-79
2023/04/14 05:19:14;;;;;;;9.43;4.22;;;20.60;55.70;;;;;;4876113;29;20033;-81
2023/04/14 05:21:41;;;;;;;9.90;4.40;;;20.60;55.80;;;;;;4860842;29;20089;-80
2023/04/14 05:24:07;;;;;;;9.35;4.03;;;20.60;55.80;;;;;;4861860;29;20401;-80
2023/04/14 05:26:33;;;;;;;9.80;4.20;;;20.60;55.70;;;;;;4861037;29;20113;-79
2023/04/14 05:28:59;;;;;;;7.63;4.00;;;20.60;55.70;;;;;;4875849;29;20386;-79
2023/04/14 05:31:25;;;;;;;8.85;4.13;;;20.60;55.70;;;;;;4861803;29;20029;-79
2023/04/14 05:33:50;;;;;;;8.95;4.00;;;20.60;55.80;;;;;;4861819;29;20030;-81
2023/04/14 05:36:16;;;;;;;8.43;4.00;;;20.60;55.70;;;;;;4860661;29;20034;-79
2023/04/14 05:38:43;;;;;;;7.68;3.80;;;20.60;55.80;;;;;;4860120;29;20124;-79
2023/04/14 05:41:10;;;;;;;7.88;4.50;;;20.60;55.70;;;;;;4876077;29;20053;-79
2023/04/14 05:43:36;;;;;;;9.30;3.97;;;20.60;55.70;;;;;;4861748;29;20022;-80
2023/04/14 05:46:02;;;;;;;9.45;4.13;;;20.60;55.70;;;;;;4876148;29;20053;-80
2023/04/14 05:48:29;;;;;;;9.85;4.18;;;20.60;55.70;;;;;;4861324;29;20506;-80
2023/04/14 05:50:55;;;;;;;8.35;4.00;;;20.60;55.80;;;;;;4861505;29;20037;-80
2023/04/14 05:53:21;;;;;;;6.00;3.70;;;20.60;55.80;;;;;;4861468;29;20037;-80
2023/04/14 05:55:49;;;;;;;7.93;4.32;;;20.60;55.70;;;;;;4875669;29;20041;-79
2023/04/14 05:58:15;;;;;;;6.53;3.45;;;20.60;55.80;;;;;;4861146;29;20037;-80
2023/04/14 06:00:41;;;;;;;7.50;3.95;;;20.60;55.70;;;;;;4845019;29;20040;-80
2023/04/14 06:03:07;;;;;;;8.52;3.42;;;20.60;55.70;;;;;;4875737;29;20057;-80
2023/04/14 06:05:33;;;;;;;7.75;3.55;;;20.60;55.70;;;;;;4875600;29;20050;-80
2023/04/14 06:07:58;;;;;;;7.32;3.65;;;20.60;55.70;;;;;;4875405;29;20034;-80
2023/04/14 06:10:24;;;;;;;8.35;3.70;;;20.60;56.00;;;;;;4874756;29;20053;-80
2023/04/14 06:12:50;;;;;;;8.15;3.50;;;20.60;56.00;;;;;;4875460;29;20044;-80
2023/04/14 06:15:16;;;;;;;7.75;3.50;;;20.60;56.20;;;;;;4861215;29;20061;-80
2023/04/14 06:17:42;;;;;;;7.40;3.50;;;20.50;56.20;;;;;;4875274;29;20068;-80
2023/04/14 06:20:08;;;;;;;9.63;3.80;;;20.60;55.80;;;;;;4874953;29;20025;-80
2023/04/14 06:22:34;;;;;;;7.22;3.33;;;20.60;55.80;;;;;;4860942;29;20029;-80
2023/04/14 06:25:00;;;;;;;9.05;3.63;;;20.60;55.70;;;;;;4875147;29;20439;-80
2023/04/14 06:27:26;;;;;;;9.13;3.67;;;20.60;55.80;;;;;;4875328;29;20037;-79
2023/04/14 06:29:52;;;;;;;7.97;3.97;;;20.60;55.70;;;;;;4859540;29;20097;-80
2023/04/14 06:32:18;;;;;;;9.82;3.50;;;20.60;55.80;;;;;;4875164;29;20037;-78
2023/04/14 06:34:46;;;;;;;5.55;3.05;;;20.60;55.80;;;;;;4859900;29;20048;-79
2023/04/14 06:37:13;;;;;;;6.18;3.50;;;20.60;55.70;;;;;;4860658;29;20402;-79
2023/04/14 06:39:38;;;;;;;10.43;4.00;;;20.60;55.80;;;;;;4860799;29;20348;-78
2023/04/14 06:42:04;;;;;;;8.95;3.45;;;20.60;55.80;;;;;;4875049;29;20041;-79
2023/04/14 06:44:30;;;;;;;8.85;3.65;;;20.60;55.70;;;;;;4859570;29;20033;-79
2023/04/14 06:46:56;;;;;;;8.77;4.10;;;20.60;55.70;;;;;;4860693;29;20029;-78
2023/04/14 06:49:23;;;;;;;7.47;3.00;;;20.60;55.80;;;;;;4860197;29;20080;-79
2023/04/14 06:51:49;;;;;;;6.53;3.63;;;20.60;56.00;;;;;;4874897;29;20033;-78
2023/04/14 06:54:15;;;;;;;5.28;3.00;;;20.60;56.00;;;;;;4860785;29;20033;-78
2023/04/14 06:56:41;;;;;;;5.95;3.20;;;20.60;55.80;;;;;;4860409;29;20503;-79
2023/04/14 06:59:07;;;;;;;6.63;3.67;;;20.60;55.80;;;;;;4860242;29;20104;-78
2023/04/14 07:01:33;;;;;;;8.27;3.58;;;20.60;56.00;;;;;;4874795;29;20367;-78
2023/04/14 07:04:02;;;;;;;5.68;3.40;;;20.60;55.90;;;;;;4859242;29;20077;-78
2023/04/14 07:06:27;;;;;;;5.70;2.97;;;20.60;55.90;;;;;;4860583;29;20053;-78
2023/04/14 07:08:55;;;;;;;5.85;3.53;;;20.60;55.90;;;;;;4860025;29;20079;-78
2023/04/14 07:11:20;;;;;;;6.13;3.20;;;20.60;56.20;;;;;;4859202;29;20049;-78
2023/04/14 07:13:46;;;;;;;6.82;3.20;;;20.60;56.10;;;;;;4860286;29;20139;-78
2023/04/14 07:16:12;;;;;;;8.57;3.30;;;20.60;56.20;;;;;;4860008;29;20037;-79
2023/04/14 07:18:38;;;;;;;9.35;3.38;;;20.60;56.20;;;;;;4859856;29;20470;-79
2023/04/14 07:21:03;;;;;;;6.13;3.17;;;20.60;56.30;;;;;;4874008;29;20056;-78
2023/04/14 07:23:29;;;;;;;5.68;2.72;;;20.60;56.10;;;;;;4874243;29;20108;-78
2023/04/14 07:25:57;;;;;;;6.63;3.30;;;20.60;56.30;;;;;;4858668;29;20113;-78
2023/04/14 07:28:24;;;;;;;7.00;3.20;;;20.60;56.30;;;;;;4859792;29;20030;-78
2023/04/14 07:30:51;;;;;;;8.00;3.13;;;20.60;56.20;;;;;;4861499;29;20060;-79
2023/04/14 07:33:18;;;;;;;6.13;3.50;;;20.60;56.40;;;;;;4889715;29;20033;-79
2023/04/14 07:35:51;;;;;;;7.60;3.08;;;20.60;56.10;;;;;;4876950;29;20081;-79
2023/04/14 07:38:18;;;;;;;7.25;3.30;;;20.60;56.50;;;;;;4892446;29;20036;-78
2023/04/14 07:40:43;;;;;;;7.82;3.50;;;20.60;56.70;;;;;;4892644;29;20039;-79
2023/04/14 07:43:10;;;;;;;9.13;3.58;;;20.60;56.10;;;;;;4877961;29;20032;-79
2023/04/14 07:45:36;;;;;;;6.50;3.20;;;20.60;56.20;;;;;;4873012;29;20040;-78
2023/04/14 07:48:02;;;;;;;5.88;2.95;;;20.60;56.30;;;;;;4875476;29;20041;-77
2023/04/14 07:50:27;;;;;;;8.07;3.45;;;20.60;56.30;;;;;;4875679;29;20383;-78
2023/04/14 07:52:53;;;;;;;7.13;3.35;;;20.60;56.20;;;;;;4875957;29;20501;-79
2023/04/14 07:55:19;;;;;;;6.80;3.53;;;20.60;56.30;;;;;;4876682;29;20033;-78
2023/04/14 07:57:45;;;;;;;8.85;3.90;;;20.60;56.30;;;;;;4876073;29;20041;-78
2023/04/14 08:00:12;;;;;;;8.82;3.45;;;20.60;56.70;;;;;;4861112;29;20039;-79
2023/04/14 08:02:40;;;;;;;5.90;3.20;;;20.60;56.20;;;;;;4892354;29;20045;-83
2023/04/14 08:05:06;;;;;;;7.80;3.35;;;20.60;56.60;;;;;;4861251;29;20057;-83
2023/04/14 08:07:32;;;;;;;8.77;3.28;;;20.50;55.20;;;;;;4892491;29;20144;-84
2023/04/14 08:09:58;;;;;;;5.30;2.63;;;20.40;53.30;;;;;;4855535;29;20060;-83
2023/04/14 08:12:24;;;;;;;6.25;2.97;;;20.30;51.90;;;;;;4869469;29;20037;-84
2023/04/14 08:14:55;;;;;;;6.30;2.85;;;20.20;51.10;;;;;;4872400;23;20053;-74
2023/04/14 08:17:22;;;;;;;5.97;2.83;;;20.10;50.50;;;;;;4872677;29;20041;-73
2023/04/14 08:19:48;;;;;;;8.20;2.85;;;20.10;50.20;;;;;;4857207;29;20056;-72
2023/04/14 08:22:14;;;;;;;7.00;2.90;;;20.00;50.10;;;;;;4871461;29;20061;-72
2023/04/14 08:24:40;;;;;;;5.53;2.88;;;20.00;49.80;;;;;;4868602;29;20143;-73
2023/04/14 08:27:06;;;;;;;5.45;2.85;;;20.00;49.60;;;;;;4871413;29;20036;-73
2023/04/14 08:29:32;;;;;;;4.95;2.53;;;20.00;50.40;;;;;;4872464;29;20045;-71
2023/04/14 08:31:58;;;;;;;4.78;2.40;;;20.10;51.20;;;;;;4881134;29;20036;-71
2023/04/14 08:34:24;;;;;;;7.07;2.45;;;20.20;51.20;;;;;;4875048;29;20530;-71
2023/04/14 08:36:53;;;;;;;6.40;2.30;;;20.20;51.50;;;;;;4876341;29;20060;-72
2023/04/14 08:39:19;;;;;;;6.90;2.20;;;20.30;51.90;;;;;;4875539;29;20033;-72
2023/04/14 08:41:49;;;;;;;5.53;2.47;;;20.50;51.70;;;;;;4860421;29;20029;-72
2023/04/14 08:44:18;;;;;;;7.22;3.03;;;20.60;53.80;;;;;;4877161;29;20115;-72
2023/04/14 08:46:47;;;;;;;6.07;2.78;;;20.70;56.20;;;;;;4878012;29;20100;-72
2023/04/14 08:49:33;;;;;;;9.30;3.13;;;20.80;56.70;;;;;;4876809;29;20108;-72
2023/04/14 08:52:02;;;;;;;9.80;3.42;;;20.80;55.80;;;;;;4877317;29;20036;-75
2023/04/14 08:54:29;;;;;;;11.80;4.00;;;20.80;56.20;;;;;;4877421;29;20029;-72
2023/04/14 08:56:58;;;;;;;7.40;2.58;;;20.80;56.40;;;;;;4877429;29;20025;-72
2023/04/14 08:59:27;;;;;;;8.55;2.58;;;20.80;54.40;;;;;;4875855;29;20469;-73
2023/04/14 09:01:54;;;;;;;8.88;2.80;;;20.90;55.10;;;;;;4876665;29;20029;-71
2023/04/14 09:04:22;;;;;;;10.07;2.58;;;20.80;54.80;;;;;;4875811;29;20048;-73
2023/04/14 09:06:51;;;;;;;8.05;2.70;;;20.90;55.40;;;;;;4875711;29;20040;-71
2023/04/14 09:09:18;;;;;;;8.55;2.63;;;20.80;55.60;;;;;;4873920;29;20037;-72
2023/04/14 09:11:44;;;;;;;8.50;2.50;;;20.80;55.70;;;;;;4876151;29;20040;-73
2023/04/14 09:14:11;;;;;;;8.95;2.78;;;20.80;55.80;;;;;;4877143;29;20100;-74
2023/04/14 09:16:37;;;;;;;18.13;2.20;;;20.70;56.10;;;;;;4883710;29;20033;-73
2023/04/14 09:19:06;;;;;;;7.90;2.90;;;20.80;56.20;;;;;;4880753;29;20039;-78
2023/04/14 09:21:33;;;;;;;7.13;2.58;;;20.80;56.30;;;;;;4885069;29;20044;-73
2023/04/14 09:23:59;;;;;;;8.20;2.75;;;20.80;56.20;;;;;;4875852;29;20063;-72
2023/04/14 09:26:26;;;;;;;13.32;3.05;;;20.80;56.50;;;;;;4881609;29;20028;-73
2023/04/14 09:28:52;;;;;;;12.25;2.78;;;20.80;56.50;;;;;;4893244;29;20036;-73
2023/04/14 09:31:19;;;;;;;8.45;2.38;;;20.80;56.60;;;;;;4885295;29;20091;-72
2023/04/14 09:33:49;;;;;;;15.35;2.72;;;20.80;56.40;;;;;;4891664;29;20036;-72
2023/04/14 09:36:21;;;;;;;9.63;2.53;;;20.80;56.20;;;;;;4872790;29;20516;-73
2023/04/14 09:38:51;;;;;;;8.63;2.35;;;20.90;56.40;;;;;;4872863;29;20025;-73
2023/04/14 09:41:22;;;;;;;10.68;2.60;;;20.90;56.70;;;;;;4875199;29;20041;-72
2023/04/14 09:43:48;;;;;;;10.65;2.83;;;20.90;56.70;;;;;;4854131;29;20029;-73
2023/04/14 09:46:15;;;;;;;14.88;3.50;;;20.90;56.90;;;;;;4877775;29;20045;-73
2023/04/14 09:48:51;;;;;;;18.67;4.28;;;20.90;57.00;;;;;;4858163;29;20077;-72
2023/04/14 09:51:22;;;;;;;16.20;4.60;;;20.90;57.10;;;;;;4873772;29;20613;-72
2023/04/14 09:53:49;;;;;;;16.02;4.07;;;20.90;57.10;;;;;;4892954;29;20040;-72
2023/04/14 09:56:15;;;;;;;15.63;4.35;;;20.90;57.20;;;;;;4892724;29;20064;-73
2023/04/14 09:58:43;;;;;;;14.05;4.00;;;20.90;57.30;;;;;;4892574;29;20075;-72
2023/04/14 10:01:14;;;;;;;15.30;4.13;;;20.90;57.20;;;;;;4880021;29;20121;-72
2023/04/14 10:03:48;;;;;;;16.33;3.97;;;20.90;57.20;;;;;;4872303;29;20112;-72
2023/04/14 10:06:22;;;;;;;11.00;3.13;;;20.90;57.30;;;;;;4875959;29;20025;-72
2023/04/14 10:08:50;;;;;;;12.05;3.50;;;20.90;57.20;;;;;;4874224;29;20033;-72
2023/04/14 10:11:26;;;;;;;16.55;4.38;;;20.90;57.80;;;;;;4875879;29;20036;-72
2023/04/14 10:13:57;;;;;;;11.30;3.08;;;21.00;57.30;;;;;;4875649;29;20029;-72
2023/04/14 10:16:24;;;;;;;14.82;3.67;;;20.90;57.10;;;;;;4858764;29;20657;-73
2023/04/14 10:18:52;;;;;;;14.63;3.60;;;20.90;56.90;;;;;;4869911;29;20055;-72
2023/04/14 10:21:21;;;;;;;17.08;4.10;;;20.90;56.90;;;;;;4875153;29;20134;-73
2023/04/14 10:23:47;;;;;;;15.82;4.00;;;20.90;56.80;;;;;;4891188;29;20061;-73
2023/04/14 10:26:14;;;;;;;15.23;3.40;;;20.90;56.90;;;;;;4891551;29;20037;-72
2023/04/14 10:28:49;;;;;;;11.60;3.53;;;20.90;57.00;;;;;;4876229;29;20517;-73
2023/04/14 10:31:50;;;;;;;17.55;3.92;;;20.90;57.10;;;;;;4891356;29;20478;-73
2023/04/14 10:34:58;;;;;;;14.85;3.72;;;21.00;57.20;;;;;;4891418;29;20032;-72
2023/04/14 10:38:00;;;;;;;13.90;3.95;;;20.90;57.00;;;;;;4891111;29;20543;-73
2023/04/14 10:40:57;;;;;;;11.80;3.22;;;20.90;56.90;;;;;;4855815;29;20072;-75
2023/04/14 10:43:35;;;;;;;15.10;3.25;;;20.90;57.10;;;;;;4872750;29;20041;-74
2023/04/14 10:46:11;;;;;;;12.73;3.85;;;21.00;57.10;;;;;;4874110;29;20474;-73
2023/04/14 10:48:54;;;;;;;16.83;4.40;;;21.00;57.10;;;;;;4856448;29;20064;-73
2023/04/14 10:51:34;;;;;;;18.23;5.10;;;21.00;57.30;;;;;;4890425;29;20044;-74
2023/04/14 10:54:02;;;;;;;20.38;4.10;;;21.00;57.30;;;;;;4890635;29;20123;-73
2023/04/14 10:56:29;;;;;;;23.17;5.38;;;21.10;57.10;;;;;;4876401;29;20033;-73
2023/04/14 10:58:58;;;;;;;12.55;3.00;;;21.00;57.40;;;;;;4872753;29;20088;-73
2023/04/14 11:01:25;;;;;;;27.83;5.45;;;21.10;57.20;;;;;;4882686;29;20024;-72
2023/04/14 11:03:53;;;;;;;20.58;4.22;;;21.00;57.70;;;;;;4890147;29;20116;-73
2023/04/14 11:06:47;;;;;;;12.75;3.97;;;21.10;58.40;;;;;;4883053;29;20120;-73
2023/04/14 11:09:23;;;;;;;15.98;3.85;;;21.10;58.20;;;;;;4876170;29;20044;-72
2023/04/14 11:11:49;;;;;;;13.35;3.58;;;21.10;57.70;;;;;;4884205;29;20566;-73
2023/04/14 11:14:15;;;;;;;15.30;3.45;;;21.10;58.70;;;;;;4874171;29;20037;-72
2023/04/14 11:16:43;;;;;;;12.32;3.83;;;21.20;58.00;;;;;;4878023;29;20532;-73
2023/04/14 11:19:14;;;;;;;16.70;3.88;;;21.20;58.10;;;;;;4889242;29;20036;-73
2023/04/14 11:21:49;;;;;;;13.18;3.97;;;21.20;58.60;;;;;;4891206;29;20450;-72
2023/04/14 11:24:16;;;;;;;26.60;4.70;;;21.20;60.60;;;;;;4890150;29;20050;-73
2023/04/14 11:26:46;;;;;;;25.73;4.30;;;21.20;60.70;;;;;;4889425;29;20028;-73
2023/04/14 11:29:12;;;;;;;;;;;21.20;60.50;;;;;;4891002;29;20115;-73
2023/04/14 11:31:38;;;;;;;15.52;3.88;;;21.20;61.20;;;;;;4879390;29;20010;-72
2023/04/14 11:34:08;;;;;;;19.35;4.50;;;21.20;60.40;;;;;;4872999;29;20541;-73
2023/04/14 11:36:35;;;;;;;14.13;3.75;;;21.30;60.60;;;;;;4873700;29;20072;-73
2023/04/14 11:39:03;;;;;;;15.95;4.10;;;21.20;58.60;;;;;;4871444;29;20037;-72
2023/04/14 11:41:29;;;;;;;11.98;3.88;;;21.20;58.60;;;;;;4890669;29;20024;-72
2023/04/14 11:43:55;;;;;;;16.45;3.92;;;21.10;57.90;;;;;;4887853;29;20032;-72
2023/04/14 11:46:21;;;;;;;13.00;4.07;;;21.10;60.10;;;;;;4890682;29;20025;-71
2023/04/14 11:48:47;;;;;;;11.13;3.70;;;21.10;59.10;;;;;;4886818;29;20045;-72
2023/04/14 11:51:13;;;;;;;13.68;4.03;;;21.10;60.50;;;;;;4889282;29;20088;-72
2023/04/14 11:53:40;;;;;;;12.80;3.50;;;21.10;59.80;;;;;;4881803;29;20036;-73
2023/04/14 11:56:11;;;;;;;14.20;4.13;;;21.00;59.00;;;;;;4868808;29;20473;-72
2023/04/14 11:58:37;;;;;;;10.55;3.53;;;21.10;60.00;;;;;;4872813;29;20045;-72
2023/04/14 12:01:03;;;;;;;14.38;4.03;;;21.00;58.80;;;;;;4877196;29;20080;-73
2023/04/14 12:03:31;;;;;;;12.60;3.42;;;21.00;59.90;;;;;;4888414;29;20103;-73
2023/04/14 12:06:02;;;;;;;14.65;4.13;;;21.00;60.10;;;;;;4890502;29;20020;-73
2023/04/14 12:08:32;;;;;;;9.25;3.40;;;21.10;60.10;;;;;;4887891;29;20024;-72
2023/04/14 12:11:13;;;;;;;11.00;3.38;;;21.00;59.40;;;;;;4889538;29;20111;-73
2023/04/14 12:13:40;;;;;;;14.13;5.10;;;21.00;59.00;;;;;;4891145;29;20068;-73
2023/04/14 12:16:07;;;;;;;22.15;5.07;;;21.00;61.90;;;;;;4889444;29;20066;-72
2023/04/14 12:18:33;;;;;;;19.15;4.85;;;21.00;62.00;;;;;;4873203;29;20060;-74
2023/04/14 12:21:03;;;;;;;33.78;8.70;;;21.10;62.70;;;;;;4873450;29;21064;-74
2023/04/14 12:23:35;;;;;;;42.10;10.95;;;21.00;63.80;;;;;;4873465;29;20096;-74
2023/04/14 12:26:01;;;;;;;39.53;10.00;;;20.90;62.30;;;;;;4889125;29;20035;-74
2023/04/14 12:28:28;;;;;;;26.58;8.20;;;20.80;60.10;;;;;;4887165;29;20036;-75
2023/04/14 12:31:01;;;;;;;30.70;7.70;;;20.70;60.30;;;;;;4873421;29;20033;-74
2023/04/14 12:33:28;;;;;;;31.30;7.80;;;20.70;59.20;;;;;;4873559;29;20040;-71
2023/04/14 12:36:20;;;;;;;30.38;8.10;;;20.70;59.90;;;;;;4869700;29;20406;-72
2023/04/14 12:38:47;;;;;;;33.65;9.40;;;20.80;62.00;;;;;;4871731;29;20053;-73
2023/04/14 12:41:21;;;;;;;21.45;7.13;;;20.90;59.80;;;;;;4872785;29;20056;-73
2023/04/14 12:43:48;;;;;;;29.67;7.13;;;20.90;58.50;;;;;;4873169;29;20532;-72
2023/04/14 12:46:24;;;;;;;28.30;7.60;;;21.00;60.30;;;;;;4888923;29;20032;-72
2023/04/14 12:48:50;;;;;;;26.60;7.80;;;21.00;61.60;;;;;;4873118;29;20093;-72